createdAt,value
2022-11-12T00:02:46.597Z,100971.90
2022-11-12T00:06:08.182Z,100972.21
2022-11-12T00:09:25.543Z,100968.03
2022-11-12T00:12:27.829Z,100968.17
2022-11-12T00:15:29.807Z,100975.64
2022-11-12T00:18:31.460Z,100972.14
2022-11-12T00:21:33.089Z,100969.20
2022-11-12T00:24:34.862Z,100969.10
2022-11-12T00:27:36.404Z,100979.52
2022-11-12T00:30:39.224Z,100983.47
2022-11-12T00:33:42.165Z,100990.16
2022-11-12T00:36:43.744Z,100986.38
2022-11-12T00:39:45.463Z,100982.62
2022-11-12T00:42:47.175Z,100983.54
2022-11-12T00:45:48.945Z,100981.02
2022-11-12T00:48:50.899Z,100978.47
2022-11-12T00:51:52.672Z,100979.04
2022-11-12T00:54:54.338Z,100974.63
2022-11-12T00:57:57.714Z,100971.90
2022-11-12T01:01:05.854Z,100973.25
2022-11-12T01:04:08.321Z,100976.33
2022-11-12T01:07:10.125Z,100979.21
2022-11-12T01:10:12.139Z,100984.46
2022-11-12T01:13:14.498Z,100982.61
2022-11-12T01:16:20.059Z,100981.98
2022-11-12T01:19:21.674Z,100984.11
2022-11-12T01:22:23.758Z,100984.49
2022-11-12T01:25:25.549Z,100982.81
2022-11-12T01:28:29.379Z,100981.80
2022-11-12T01:31:34.397Z,100979.83
2022-11-12T01:34:36.117Z,100977.79
2022-11-12T01:37:37.674Z,100985.98
2022-11-12T01:40:39.423Z,100983.91
2022-11-12T01:43:41.946Z,100983.17
2022-11-12T01:46:58.138Z,100987.36
2022-11-12T01:50:06.139Z,100987.77
2022-11-12T01:53:10.163Z,100987.08
2022-11-12T01:56:11.979Z,100983.27
2022-11-12T01:59:26.816Z,100983.67
2022-11-12T02:02:28.754Z,100985.95
2022-11-12T02:05:31.686Z,100986.95
2022-11-12T02:08:34.345Z,100985.63
2022-11-12T02:11:36.107Z,100988.71
2022-11-12T02:14:37.795Z,100986.46
2022-11-12T02:17:39.391Z,100980.41
2022-11-12T02:20:40.985Z,100980.42
2022-11-12T02:23:43.101Z,100977.80
2022-11-12T02:26:48.589Z,100970.10
2022-11-12T02:29:50.382Z,100974.56
2022-11-12T02:32:52.041Z,100968.67
2022-11-12T02:35:53.861Z,100973.95
2022-11-12T02:38:55.671Z,100970.39
2022-11-12T02:41:57.345Z,100973.21
2022-11-12T02:44:59.559Z,100973.14
2022-11-12T02:48:01.776Z,100970.59
2022-11-12T02:51:03.538Z,100969.89
2022-11-12T02:54:05.316Z,100969.56
2022-11-12T02:57:06.934Z,100969.23
2022-11-12T03:00:10.929Z,100965.04
2022-11-12T03:03:12.901Z,100961.77
2022-11-12T03:06:15.064Z,100955.91
2022-11-12T03:09:16.628Z,100959.06
2022-11-12T03:12:18.107Z,100957.97
2022-11-12T03:15:20.096Z,100958.46
2022-11-12T03:18:22.053Z,100961.25
2022-11-12T03:21:23.604Z,100969.80
2022-11-12T03:24:25.219Z,100977.14
2022-11-12T03:27:26.793Z,100975.46
2022-11-12T03:30:31.180Z,100973.89
2022-11-12T03:33:32.905Z,100973.49
2022-11-12T03:36:34.607Z,100968.41
2022-11-12T03:39:36.784Z,100972.61
2022-11-12T03:42:38.389Z,100970.48
2022-11-12T03:45:39.965Z,100967.97
2022-11-12T03:48:41.770Z,100973.89
2022-11-12T03:51:43.695Z,100972.95
2022-11-12T03:54:45.417Z,100975.38
2022-11-12T03:57:51.842Z,100982.46
2022-11-12T04:00:53.560Z,100979.73
2022-11-12T04:03:55.169Z,100976.70
2022-11-12T04:07:15.774Z,100977.85
2022-11-12T04:10:17.426Z,100975.35
2022-11-12T04:13:28.285Z,100975.41
2022-11-12T04:16:48.823Z,100978.16
2022-11-12T04:20:09.280Z,100980.55
2022-11-12T04:23:11.035Z,100975.70
2022-11-12T04:26:24.889Z,100975.59
2022-11-12T04:29:45.444Z,100974.27
2022-11-12T04:32:54.759Z,100967.27
2022-11-12T04:35:56.523Z,100962.40
2022-11-12T04:38:58.258Z,100960.89
2022-11-12T04:42:18.599Z,100962.63
2022-11-12T04:45:20.227Z,100964.00
2022-11-12T04:48:22.185Z,100960.20
2022-11-12T04:51:42.738Z,100961.45
2022-11-12T04:54:44.340Z,100964.88
2022-11-12T04:57:46.099Z,100963.98
2022-11-12T05:00:48.000Z,100965.48
2022-11-12T05:03:49.664Z,100962.30
2022-11-12T05:06:51.384Z,100961.28
2022-11-12T05:09:53.046Z,100960.49
2022-11-12T05:12:54.656Z,100966.30
2022-11-12T05:15:56.308Z,100976.76
2022-11-12T05:18:58.108Z,100975.69
2022-11-12T05:22:05.699Z,100975.35
2022-11-12T05:25:07.987Z,100974.60
2022-11-12T05:28:09.641Z,100974.95
2022-11-12T05:31:11.750Z,100978.06
2022-11-12T05:34:15.568Z,100973.50
2022-11-12T05:37:20.769Z,100975.94
2022-11-12T05:40:22.382Z,100979.25
2022-11-12T05:43:24.268Z,100974.90
2022-11-12T05:46:25.870Z,100977.98
2022-11-12T05:49:27.445Z,100976.64
2022-11-12T05:52:29.582Z,100982.78
2022-11-12T05:55:35.932Z,100985.11
2022-11-12T05:58:39.285Z,100989.09
2022-11-12T06:01:44.072Z,100989.91
2022-11-12T06:04:45.742Z,100995.73
2022-11-12T06:07:47.407Z,101004.32
2022-11-12T06:10:50.452Z,101007.92
2022-11-12T06:13:52.170Z,101010.98
2022-11-12T06:16:53.741Z,101010.92
2022-11-12T06:19:55.335Z,101012.25
2022-11-12T06:22:57.519Z,101015.09
2022-11-12T06:25:59.302Z,101015.59
2022-11-12T06:29:00.854Z,101008.98
2022-11-12T06:32:02.450Z,101008.61
2022-11-12T06:35:04.867Z,101016.79
2022-11-12T06:38:06.500Z,101019.96
2022-11-12T06:41:08.912Z,101020.55
2022-11-12T06:44:11.094Z,101025.16
2022-11-12T06:47:12.782Z,101024.67
2022-11-12T06:50:14.862Z,101025.08
2022-11-12T06:53:16.482Z,101020.48
2022-11-12T06:56:18.040Z,101021.16
2022-11-12T06:59:19.969Z,101023.78
2022-11-12T07:02:21.727Z,101025.91
2022-11-12T07:05:23.420Z,101026.48
2022-11-12T07:08:25.639Z,101025.42
2022-11-12T07:11:27.843Z,101032.23
2022-11-12T07:14:29.464Z,101034.42
2022-11-12T07:17:31.049Z,101036.59
2022-11-12T07:20:32.972Z,101037.14
2022-11-12T07:23:36.212Z,101033.48
2022-11-12T07:26:39.877Z,101035.21
2022-11-12T07:29:48.806Z,101034.71
2022-11-12T07:32:52.135Z,101027.47
2022-11-12T07:36:06.029Z,101024.09
2022-11-12T07:39:07.692Z,101018.25
2022-11-12T07:42:09.470Z,101017.55
2022-11-12T07:45:11.051Z,101013.80
2022-11-12T07:48:12.673Z,101015.38
2022-11-12T07:51:17.508Z,101012.17
2022-11-12T07:54:19.262Z,101015.84
2022-11-12T07:57:20.984Z,101019.24
2022-11-12T08:00:23.715Z,101017.77
2022-11-12T08:03:25.979Z,101018.30
2022-11-12T08:06:29.008Z,101019.80
2022-11-12T08:09:30.785Z,101024.23
2022-11-12T08:12:32.330Z,101023.05
2022-11-12T08:15:34.008Z,101022.02
2022-11-12T08:18:35.689Z,101021.64
2022-11-12T08:21:37.403Z,101026.81
2022-11-12T08:24:39.274Z,101028.90
2022-11-12T08:27:41.166Z,101035.20
2022-11-12T08:30:42.846Z,101032.55
2022-11-12T08:33:45.274Z,101030.61
2022-11-12T08:36:46.949Z,101031.14
2022-11-12T08:39:48.821Z,101032.75
2022-11-12T08:42:57.938Z,101033.23
2022-11-12T08:46:00.637Z,101035.15
2022-11-12T08:49:02.315Z,101040.61
2022-11-12T08:52:04.146Z,101040.06
2022-11-12T08:55:06.623Z,101042.77
2022-11-12T08:58:08.556Z,101044.67
2022-11-12T09:01:10.372Z,101040.79
2022-11-12T09:04:12.101Z,101042.30
2022-11-12T09:07:43.416Z,101044.36
2022-11-12T09:10:36.818Z,101048.40
2022-11-12T09:13:38.735Z,101052.52
2022-11-12T09:16:40.674Z,101044.94
2022-11-12T09:19:43.157Z,101041.29
2022-11-12T09:22:44.944Z,101042.16
2022-11-12T09:25:46.699Z,101039.38
2022-11-12T09:28:48.344Z,101040.98
2022-11-12T09:31:50.362Z,101042.65
2022-11-12T09:34:52.101Z,101037.39
2022-11-12T09:37:53.801Z,101031.36
2022-11-12T09:41:20.630Z,101026.20
2022-11-12T09:44:24.542Z,101033.10
2022-11-12T09:47:33.787Z,101033.90
2022-11-12T09:50:41.042Z,101031.67
2022-11-12T09:53:56.186Z,101031.16
2022-11-12T09:56:57.867Z,101026.64
2022-11-12T09:59:59.612Z,101026.84
2022-11-12T10:03:15.044Z,101023.77
2022-11-12T10:06:20.550Z,101028.95
2022-11-12T10:09:29.259Z,101030.00
2022-11-12T10:12:50.193Z,101031.02
2022-11-12T10:16:33.280Z,101033.02
2022-11-12T10:19:58.622Z,101029.29
2022-11-12T10:23:32.684Z,101027.10
2022-11-12T10:26:35.180Z,101022.85
2022-11-12T10:29:46.891Z,101022.20
2022-11-12T10:32:49.462Z,101021.90
2022-11-12T10:35:52.801Z,101016.50
2022-11-12T10:38:55.395Z,101005.45
2022-11-12T10:42:23.941Z,101005.90
2022-11-12T10:45:26.315Z,101002.02
2022-11-12T10:48:29.390Z,100998.73
2022-11-12T10:51:34.225Z,101005.45
2022-11-12T10:54:38.997Z,101003.17
2022-11-12T10:57:40.656Z,100998.04
2022-11-12T11:01:03.005Z,100997.77
2022-11-12T11:04:04.763Z,100991.57
2022-11-12T11:07:15.322Z,100988.63
2022-11-12T11:10:27.621Z,100983.08
2022-11-12T11:13:29.236Z,100977.48
2022-11-12T11:16:32.143Z,100979.69
2022-11-12T11:19:38.695Z,100973.60
2022-11-12T11:22:45.931Z,100968.88
2022-11-12T11:25:51.410Z,100969.23
2022-11-12T11:29:24.522Z,100965.86
2022-11-12T11:32:37.435Z,100964.75
2022-11-12T11:35:51.770Z,100957.28
2022-11-12T11:38:59.524Z,100966.16
2022-11-12T11:42:13.371Z,100961.08
2022-11-12T11:45:40.534Z,100959.91
2022-11-12T11:49:03.622Z,100955.02
2022-11-12T11:52:50.712Z,100953.46
2022-11-12T11:56:02.765Z,100957.27
2022-11-12T11:59:24.612Z,100954.37
2022-11-12T12:02:41.460Z,100947.80
2022-11-12T12:05:46.405Z,100943.30
2022-11-12T12:08:47.970Z,100938.48
2022-11-12T12:11:54.780Z,100939.89
2022-11-12T12:15:47.916Z,100943.02
2022-11-12T12:19:05.166Z,100941.54
2022-11-12T12:22:13.444Z,100940.55
2022-11-12T12:25:28.056Z,100940.80
2022-11-12T12:28:43.579Z,100939.19
2022-11-12T12:31:50.970Z,100934.74
2022-11-12T12:34:59.584Z,100934.81
2022-11-12T12:38:15.679Z,100933.38
2022-11-12T12:41:34.081Z,100933.67
2022-11-12T12:45:01.244Z,100930.58
2022-11-12T12:48:05.292Z,100927.92
2022-11-12T12:51:06.977Z,100928.70
2022-11-12T12:54:37.116Z,100933.40
2022-11-12T12:57:39.656Z,100933.95
2022-11-12T13:00:41.799Z,100934.36
2022-11-12T13:03:43.852Z,100938.38
2022-11-12T13:06:45.647Z,100933.23
2022-11-12T13:09:47.483Z,100930.23
2022-11-12T13:13:21.231Z,100931.84
2022-11-12T13:17:01.856Z,100928.34
2022-11-12T13:20:03.643Z,100932.95
2022-11-12T13:23:09.839Z,100935.14
2022-11-12T13:26:39.782Z,100935.20
2022-11-12T13:29:42.909Z,100936.53
2022-11-12T13:32:47.280Z,100938.54
2022-11-12T13:35:49.180Z,100938.33
2022-11-12T13:38:51.107Z,100936.05
2022-11-12T13:42:18.137Z,100935.96
2022-11-12T13:45:24.089Z,100936.31
2022-11-12T13:48:36.959Z,100934.26
2022-11-12T13:51:47.267Z,100934.83
2022-11-12T13:55:01.664Z,100935.48
2022-11-12T13:58:03.444Z,100932.80
2022-11-12T14:01:06.422Z,100930.70
2022-11-12T14:04:11.534Z,100930.86
2022-11-12T14:07:40.019Z,100939.33
2022-11-12T14:11:00.173Z,100934.63
2022-11-12T14:14:16.360Z,100932.02
2022-11-12T14:17:23.036Z,100935.96
2022-11-12T14:20:30.778Z,100938.83
2022-11-12T14:23:32.769Z,100936.37
2022-11-12T14:26:40.054Z,100931.98
2022-11-12T14:29:43.864Z,100933.01
2022-11-12T14:32:47.386Z,100926.05
2022-11-12T14:35:50.597Z,100931.12
2022-11-12T14:38:55.292Z,100930.58
2022-11-12T14:41:58.477Z,100923.96
2022-11-12T14:45:00.406Z,100924.49
2022-11-12T14:48:02.280Z,100922.06
2022-11-12T14:51:07.452Z,100921.80
2022-11-12T14:54:14.643Z,100926.10
2022-11-12T14:57:26.835Z,100924.17
2022-11-12T15:00:32.260Z,100929.08
2022-11-12T15:03:34.044Z,100932.76
2022-11-12T15:06:35.680Z,100931.93
2022-11-12T15:09:38.960Z,100928.19
2022-11-12T15:12:40.762Z,100927.73
2022-11-12T15:15:59.680Z,100928.83
2022-11-12T15:19:07.624Z,100932.26
2022-11-12T15:22:19.579Z,100933.80
2022-11-12T15:25:24.389Z,100934.16
2022-11-12T15:28:26.653Z,100936.25
2022-11-12T15:31:28.480Z,100937.48
2022-11-12T15:34:41.117Z,100940.15
2022-11-12T15:37:43.460Z,100937.46
2022-11-12T15:40:46.609Z,100941.94
2022-11-12T15:43:48.313Z,100944.97
2022-11-12T15:46:50.092Z,100950.33
2022-11-12T15:49:56.949Z,100954.52
2022-11-12T15:52:59.312Z,100958.23
2022-11-12T15:56:03.437Z,100965.48
2022-11-12T15:59:05.163Z,100974.49
2022-11-12T16:02:13.594Z,100978.20
2022-11-12T16:05:16.582Z,100976.68
2022-11-12T16:08:18.840Z,100981.36
2022-11-12T16:11:35.964Z,100991.66
2022-11-12T16:14:37.831Z,100990.14
2022-11-12T16:17:39.765Z,100996.48
2022-11-12T16:20:41.569Z,100996.48
2022-11-12T16:23:43.393Z,100998.05
2022-11-12T16:26:45.141Z,101001.95
2022-11-12T16:29:46.955Z,101002.20
2022-11-12T16:32:48.739Z,101003.02
2022-11-12T16:35:51.110Z,100999.90
2022-11-12T16:38:52.935Z,100997.14
2022-11-12T16:41:54.598Z,101002.24
2022-11-12T16:44:56.409Z,101000.92
2022-11-12T16:47:58.388Z,101002.64
2022-11-12T16:51:00.914Z,101013.44
2022-11-12T16:54:02.649Z,101018.15
2022-11-12T16:57:04.365Z,101019.41
2022-11-12T17:00:07.646Z,101017.73
2022-11-12T17:03:13.100Z,101021.11
2022-11-12T17:06:14.804Z,101023.31
2022-11-12T17:09:18.090Z,101022.21
2022-11-12T17:12:19.871Z,101022.50
2022-11-12T17:15:21.729Z,101023.90
2022-11-12T17:18:23.452Z,101026.04
2022-11-12T17:21:25.304Z,101024.27
2022-11-12T17:24:27.292Z,101021.30
2022-11-12T17:27:28.937Z,101023.70
2022-11-12T17:30:30.580Z,101027.05
2022-11-12T17:33:32.491Z,101032.12
2022-11-12T17:36:35.324Z,101029.37
2022-11-12T17:39:39.791Z,101033.08
2022-11-12T17:42:41.366Z,101037.58
2022-11-12T17:45:51.475Z,101043.29
2022-11-12T17:48:53.374Z,101038.12
2022-11-12T17:51:55.155Z,101043.96
2022-11-12T17:54:56.802Z,101042.78
2022-11-12T17:57:58.556Z,101046.95
2022-11-12T18:01:23.406Z,101047.05
2022-11-12T18:04:26.605Z,101050.17
2022-11-12T18:07:31.850Z,101051.59
2022-11-12T18:10:33.674Z,101052.91
2022-11-12T18:13:35.275Z,101054.38
2022-11-12T18:16:36.996Z,101057.64
2022-11-12T18:19:38.486Z,101061.91
2022-11-12T18:22:44.722Z,101057.80
2022-11-12T18:25:46.862Z,101059.20
2022-11-12T18:28:55.279Z,101061.13
2022-11-12T18:31:56.901Z,101060.95
2022-11-12T18:34:58.503Z,101063.83
2022-11-12T18:38:00.219Z,101068.66
2022-11-12T18:41:02.972Z,101066.88
2022-11-12T18:44:04.827Z,101074.01
2022-11-12T18:47:06.500Z,101080.05
2022-11-12T18:50:09.064Z,101089.05
2022-11-12T18:53:10.887Z,101093.48
2022-11-12T18:56:17.601Z,101084.22
2022-11-12T18:59:19.504Z,101088.44
2022-11-12T19:02:21.420Z,101091.51
2022-11-12T19:05:23.113Z,101092.69
2022-11-12T19:08:26.584Z,101093.86
2022-11-12T19:11:28.323Z,101093.30
2022-11-12T19:14:30.339Z,101095.11
2022-11-12T19:17:32.001Z,101099.56
2022-11-12T19:20:33.587Z,101102.10
2022-11-12T19:23:35.315Z,101103.42
2022-11-12T19:26:36.914Z,101109.33
2022-11-12T19:29:38.659Z,101112.18
2022-11-12T19:32:40.345Z,101112.17
2022-11-12T19:35:42.158Z,101113.86
2022-11-12T19:38:44.159Z,101103.65
2022-11-12T19:41:45.929Z,101100.48
2022-11-12T19:44:48.213Z,101105.04
2022-11-12T19:47:51.944Z,101106.46
2022-11-12T19:50:54.194Z,101102.20
2022-11-12T19:53:55.759Z,101100.89
2022-11-12T19:56:57.392Z,101102.98
2022-11-12T19:59:59.127Z,101103.72
2022-11-12T20:03:00.730Z,101103.73
2022-11-12T20:06:03.958Z,101108.85
2022-11-12T20:09:05.930Z,101115.36
2022-11-12T20:12:08.532Z,101119.64
2022-11-12T20:15:10.530Z,101114.71
2022-11-12T20:18:12.182Z,101112.89
2022-11-12T20:21:13.808Z,101108.22
2022-11-12T20:24:15.485Z,101109.98
2022-11-12T20:27:17.920Z,101108.26
2022-11-12T20:30:19.610Z,101111.04
2022-11-12T20:33:21.237Z,101108.57
2022-11-12T20:36:23.660Z,101112.55
2022-11-12T20:39:25.376Z,101120.50
2022-11-12T20:42:26.834Z,101113.08
2022-11-12T20:45:28.585Z,101115.71
2022-11-12T20:48:30.492Z,101117.41
2022-11-12T20:51:33.742Z,101114.38
2022-11-12T20:54:35.463Z,101117.16
2022-11-12T20:57:37.004Z,101115.35
2022-11-12T21:00:39.060Z,101111.51
2022-11-12T21:03:42.146Z,101109.63
2022-11-12T21:06:43.935Z,101100.96
2022-11-12T21:09:45.630Z,101094.04
2022-11-12T21:12:47.253Z,101091.52
2022-11-12T21:15:49.143Z,101093.36
2022-11-12T21:18:50.785Z,101091.63
2022-11-12T21:21:52.398Z,101093.94
2022-11-12T21:24:54.089Z,101092.50
2022-11-12T21:27:55.581Z,101099.16
2022-11-12T21:31:05.185Z,101099.82
2022-11-12T21:34:07.200Z,101099.67
2022-11-12T21:37:09.163Z,101092.59
2022-11-12T21:40:11.048Z,101097.50
2022-11-12T21:43:12.775Z,101100.59
2022-11-12T21:46:21.101Z,101099.30
2022-11-12T21:49:22.833Z,101094.56
2022-11-12T21:52:24.524Z,101088.86
2022-11-12T21:55:26.368Z,101091.47
2022-11-12T21:58:29.525Z,101088.45
2022-11-12T22:01:34.278Z,101091.31
2022-11-12T22:04:35.998Z,101094.59
2022-11-12T22:07:37.751Z,101095.95
2022-11-12T22:10:39.407Z,101099.45
2022-11-12T22:13:42.000Z,101095.69
2022-11-12T22:16:43.891Z,101091.16
2022-11-12T22:19:45.716Z,101085.66
2022-11-12T22:22:47.339Z,101086.39
2022-11-12T22:25:50.787Z,101087.13
2022-11-12T22:28:54.011Z,101087.20
2022-11-12T22:31:55.778Z,101088.55
2022-11-12T22:34:57.652Z,101078.97
2022-11-12T22:37:59.244Z,101082.98
2022-11-12T22:41:11.140Z,101090.02
2022-11-12T22:44:12.949Z,101082.83
2022-11-12T22:47:14.657Z,101080.92
2022-11-12T22:50:16.423Z,101074.61
2022-11-12T22:53:18.090Z,101076.80
2022-11-12T22:56:19.977Z,101072.41
2022-11-12T22:59:21.709Z,101072.31
2022-11-12T23:02:23.356Z,101066.77
2022-11-12T23:05:25.049Z,101065.94
2022-11-12T23:08:27.225Z,101061.27
2022-11-12T23:11:29.304Z,101056.16
2022-11-12T23:14:30.965Z,101058.04
2022-11-12T23:17:32.632Z,101059.39
2022-11-12T23:20:34.166Z,101062.27
2022-11-12T23:23:36.259Z,101066.08
2022-11-12T23:26:37.862Z,101064.15
2022-11-12T23:29:39.564Z,101062.95
2022-11-12T23:32:41.737Z,101057.86
2022-11-12T23:35:43.448Z,101051.40
2022-11-12T23:38:45.589Z,101044.75
2022-11-12T23:41:47.328Z,101047.55
2022-11-12T23:44:48.832Z,101051.31
2022-11-12T23:47:50.908Z,101053.55
2022-11-12T23:51:03.866Z,101052.33
2022-11-12T23:54:05.800Z,101056.80
2022-11-12T23:57:07.628Z,101060.20
